US-0466 weather

Schroeder's field
Dogwood, Arkansas, United States

Public forecast

Using degrees Fahrenheit for public forecast. Weather courtesy of forecast.io.

Closest aviation weather report (METAR) to Schroeder's field

Closest report is Searcy Municipal Airport, 8.3 nm (15.4 km) N. Retrieved 2019/12/13 15:41 UTC (17 minutes ago):

KSRC 131541Z AUTO 19004KT 3SM BR OVC002 06/06 A3001 RMK AO2

Closest aviation forecast (TAF) to Schroeder's field

Closest forecast is Little Rock Air Force Base, 22.2 nm (41.2 km) WSW. Retrieved 2019/12/13 15:12 UTC (46 minutes ago):

TAF KLRF 131500Z 1315/1421 VRB06KT 1600 BR FEW010 BKN020 QNH2998INS TEMPO 1315/1316 0600 FG VV002 BECMG 1315/1316 VRB06KT 8000 BR FEW010 BKN020 QNH2976INS TEMPO 1316/1318 3200 BR BKN010 BECMG 1409/1410 VRB06KT 9000 BR SCT020 BKN150 QNH2978INS TX10/1321Z TN00/1413Z